sensor_id;sensor_type;location;lat;lon;timestamp;P1;durP1;ratioP1;P2;durP2;ratioP2
68074;SDS011;54864;52.002;5.468;2023-10-09T00:01:00;41.10;;;22.45;;
68074;SDS011;54864;52.002;5.468;2023-10-09T00:02:33;41.92;;;23.95;;
68074;SDS011;54864;52.002;5.468;2023-10-09T00:03:55;38.85;;;23.15;;
68074;SDS011;54864;52.002;5.468;2023-10-09T00:05:21;37.78;;;22.70;;
68074;SDS011;54864;52.002;5.468;2023-10-09T00:06:48;39.72;;;23.17;;
68074;SDS011;54864;52.002;5.468;2023-10-09T00:08:10;39.33;;;23.17;;
68074;SDS011;54864;52.002;5.468;2023-10-09T00:09:36;38.90;;;24.10;;
68074;SDS011;54864;52.002;5.468;2023-10-09T00:11:06;40.80;;;24.92;;
68074;SDS011;54864;52.002;5.468;2023-10-09T00:12:37;42.38;;;24.15;;
68074;SDS011;54864;52.002;5.468;2023-10-09T00:14:00;38.03;;;23.80;;
68074;SDS011;54864;52.002;5.468;2023-10-09T00:15:21;38.67;;;24.48;;
68074;SDS011;54864;52.002;5.468;2023-10-09T00:16:48;37.50;;;23.58;;
68074;SDS011;54864;52.002;5.468;2023-10-09T00:18:09;41.20;;;23.30;;
68074;SDS011;54864;52.002;5.468;2023-10-09T00:19:32;47.05;;;25.58;;
68074;SDS011;54864;52.002;5.468;2023-10-09T00:20:54;41.95;;;24.27;;
68074;SDS011;54864;52.002;5.468;2023-10-09T00:22:15;35.95;;;23.58;;
68074;SDS011;54864;52.002;5.468;2023-10-09T00:23:54;41.90;;;24.08;;
68074;SDS011;54864;52.002;5.468;2023-10-09T00:25:19;38.83;;;24.23;;
68074;SDS011;54864;52.002;5.468;2023-10-09T00:26:43;38.78;;;24.15;;
68074;SDS011;54864;52.002;5.468;2023-10-09T00:28:07;40.45;;;23.67;;
68074;SDS011;54864;52.002;5.468;2023-10-09T00:29:32;47.42;;;25.65;;
68074;SDS011;54864;52.002;5.468;2023-10-09T00:30:56;40.00;;;25.23;;
68074;SDS011;54864;52.002;5.468;2023-10-09T00:32:17;40.15;;;25.08;;
68074;SDS011;54864;52.002;5.468;2023-10-09T00:33:46;43.72;;;24.88;;
68074;SDS011;54864;52.002;5.468;2023-10-09T00:35:07;47.47;;;27.67;;
68074;SDS011;54864;52.002;5.468;2023-10-09T00:36:56;47.85;;;27.50;;
68074;SDS011;54864;52.002;5.468;2023-10-09T00:38:24;45.88;;;27.60;;
68074;SDS011;54864;52.002;5.468;2023-10-09T00:39:54;47.97;;;26.83;;
68074;SDS011;54864;52.002;5.468;2023-10-09T00:41:17;47.97;;;27.88;;
68074;SDS011;54864;52.002;5.468;2023-10-09T00:42:42;48.70;;;27.58;;
68074;SDS011;54864;52.002;5.468;2023-10-09T00:44:03;41.22;;;25.73;;
68074;SDS011;54864;52.002;5.468;2023-10-09T00:45:29;43.55;;;24.88;;
68074;SDS011;54864;52.002;5.468;2023-10-09T00:46:52;46.83;;;26.43;;
68074;SDS011;54864;52.002;5.468;2023-10-09T00:48:14;49.03;;;26.63;;
68074;SDS011;54864;52.002;5.468;2023-10-09T00:49:43;43.95;;;26.40;;
68074;SDS011;54864;52.002;5.468;2023-10-09T00:51:05;48.97;;;26.48;;
68074;SDS011;54864;52.002;5.468;2023-10-09T00:52:36;42.35;;;26.48;;
68074;SDS011;54864;52.002;5.468;2023-10-09T00:54:04;46.22;;;26.77;;
68074;SDS011;54864;52.002;5.468;2023-10-09T00:55:34;46.75;;;26.60;;
68074;SDS011;54864;52.002;5.468;2023-10-09T00:57:05;43.58;;;26.63;;
68074;SDS011;54864;52.002;5.468;2023-10-09T00:58:28;46.35;;;27.02;;
68074;SDS011;54864;52.002;5.468;2023-10-09T00:59:52;46.42;;;27.30;;
68074;SDS011;54864;52.002;5.468;2023-10-09T01:01:21;45.33;;;25.45;;
68074;SDS011;54864;52.002;5.468;2023-10-09T01:02:48;43.90;;;26.35;;
68074;SDS011;54864;52.002;5.468;2023-10-09T01:04:29;43.40;;;27.13;;
68074;SDS011;54864;52.002;5.468;2023-10-09T01:05:58;43.70;;;27.23;;
68074;SDS011;54864;52.002;5.468;2023-10-09T01:07:36;43.50;;;26.13;;
68074;SDS011;54864;52.002;5.468;2023-10-09T01:09:00;44.60;;;26.88;;
68074;SDS011;54864;52.002;5.468;2023-10-09T01:10:29;44.00;;;26.73;;
68074;SDS011;54864;52.002;5.468;2023-10-09T01:12:11;46.47;;;27.95;;
68074;SDS011;54864;52.002;5.468;2023-10-09T01:13:37;42.67;;;26.50;;
68074;SDS011;54864;52.002;5.468;2023-10-09T01:15:14;47.42;;;27.00;;
68074;SDS011;54864;52.002;5.468;2023-10-09T01:16:57;45.83;;;26.92;;
68074;SDS011;54864;52.002;5.468;2023-10-09T01:18:21;44.45;;;27.73;;
68074;SDS011;54864;52.002;5.468;2023-10-09T01:19:52;43.72;;;27.35;;
68074;SDS011;54864;52.002;5.468;2023-10-09T01:21:16;45.33;;;26.77;;
68074;SDS011;54864;52.002;5.468;2023-10-09T01:22:37;46.70;;;26.83;;
68074;SDS011;54864;52.002;5.468;2023-10-09T01:24:02;45.75;;;27.52;;
68074;SDS011;54864;52.002;5.468;2023-10-09T01:25:23;42.80;;;26.67;;
68074;SDS011;54864;52.002;5.468;2023-10-09T01:26:52;45.58;;;26.27;;
68074;SDS011;54864;52.002;5.468;2023-10-09T01:28:14;43.58;;;25.88;;
68074;SDS011;54864;52.002;5.468;2023-10-09T01:29:37;46.28;;;26.92;;
68074;SDS011;54864;52.002;5.468;2023-10-09T01:30:58;44.83;;;26.83;;
68074;SDS011;54864;52.002;5.468;2023-10-09T01:32:21;44.33;;;26.15;;
68074;SDS011;54864;52.002;5.468;2023-10-09T01:33:47;43.38;;;25.80;;
68074;SDS011;54864;52.002;5.468;2023-10-09T01:35:09;42.77;;;26.57;;
68074;SDS011;54864;52.002;5.468;2023-10-09T01:36:40;49.88;;;27.08;;
68074;SDS011;54864;52.002;5.468;2023-10-09T01:38:03;44.33;;;25.35;;
68074;SDS011;54864;52.002;5.468;2023-10-09T01:39:32;43.83;;;27.25;;
68074;SDS011;54864;52.002;5.468;2023-10-09T01:41:00;42.95;;;26.17;;
68074;SDS011;54864;52.002;5.468;2023-10-09T01:42:27;40.38;;;26.23;;
68074;SDS011;54864;52.002;5.468;2023-10-09T01:43:54;39.67;;;25.13;;
68074;SDS011;54864;52.002;5.468;2023-10-09T01:45:21;35.50;;;24.00;;
68074;SDS011;54864;52.002;5.468;2023-10-09T01:46:48;39.05;;;25.23;;
68074;SDS011;54864;52.002;5.468;2023-10-09T01:48:13;42.17;;;26.40;;
68074;SDS011;54864;52.002;5.468;2023-10-09T01:49:45;38.08;;;24.33;;
68074;SDS011;54864;52.002;5.468;2023-10-09T01:51:12;40.37;;;25.40;;
68074;SDS011;54864;52.002;5.468;2023-10-09T01:52:37;44.25;;;27.30;;
68074;SDS011;54864;52.002;5.468;2023-10-09T01:53:59;42.85;;;26.33;;
68074;SDS011;54864;52.002;5.468;2023-10-09T01:55:22;41.95;;;27.00;;
68074;SDS011;54864;52.002;5.468;2023-10-09T01:56:54;42.30;;;27.42;;
68074;SDS011;54864;52.002;5.468;2023-10-09T01:58:17;41.38;;;26.85;;
68074;SDS011;54864;52.002;5.468;2023-10-09T01:59:44;43.13;;;27.50;;
68074;SDS011;54864;52.002;5.468;2023-10-09T02:01:09;43.47;;;27.38;;
68074;SDS011;54864;52.002;5.468;2023-10-09T02:02:32;42.17;;;26.50;;
68074;SDS011;54864;52.002;5.468;2023-10-09T02:03:54;42.30;;;25.88;;
68074;SDS011;54864;52.002;5.468;2023-10-09T02:05:23;42.58;;;26.25;;
68074;SDS011;54864;52.002;5.468;2023-10-09T02:06:45;42.35;;;26.55;;
68074;SDS011;54864;52.002;5.468;2023-10-09T02:08:12;44.65;;;27.73;;
68074;SDS011;54864;52.002;5.468;2023-10-09T02:09:34;46.42;;;27.80;;
68074;SDS011;54864;52.002;5.468;2023-10-09T02:10:56;41.03;;;26.60;;
68074;SDS011;54864;52.002;5.468;2023-10-09T02:12:18;44.67;;;27.50;;
68074;SDS011;54864;52.002;5.468;2023-10-09T02:13:39;45.25;;;27.83;;
68074;SDS011;54864;52.002;5.468;2023-10-09T02:15:03;42.15;;;26.52;;
68074;SDS011;54864;52.002;5.468;2023-10-09T02:16:35;49.88;;;27.42;;
68074;SDS011;54864;52.002;5.468;2023-10-09T02:18:02;44.85;;;27.23;;
68074;SDS011;54864;52.002;5.468;2023-10-09T02:19:37;48.75;;;27.23;;
68074;SDS011;54864;52.002;5.468;2023-10-09T02:21:07;43.30;;;27.05;;
68074;SDS011;54864;52.002;5.468;2023-10-09T02:22:34;45.85;;;27.33;;
68074;SDS011;54864;52.002;5.468;2023-10-09T02:23:57;43.72;;;27.13;;
68074;SDS011;54864;52.002;5.468;2023-10-09T02:25:23;44.50;;;27.92;;
68074;SDS011;54864;52.002;5.468;2023-10-09T02:26:56;41.92;;;24.90;;
68074;SDS011;54864;52.002;5.468;2023-10-09T02:28:28;46.75;;;26.88;;
68074;SDS011;54864;52.002;5.468;2023-10-09T02:29:53;39.13;;;25.40;;
68074;SDS011;54864;52.002;5.468;2023-10-09T02:31:17;39.83;;;27.35;;
68074;SDS011;54864;52.002;5.468;2023-10-09T02:32:42;37.53;;;25.60;;
68074;SDS011;54864;52.002;5.468;2023-10-09T02:34:03;36.33;;;25.45;;
68074;SDS011;54864;52.002;5.468;2023-10-09T02:35:32;44.75;;;26.25;;
68074;SDS011;54864;52.002;5.468;2023-10-09T02:36:57;42.28;;;26.77;;
68074;SDS011;54864;52.002;5.468;2023-10-09T02:38:26;39.25;;;26.92;;
68074;SDS011;54864;52.002;5.468;2023-10-09T02:39:47;44.80;;;28.75;;
68074;SDS011;54864;52.002;5.468;2023-10-09T02:41:12;47.70;;;28.65;;
68074;SDS011;54864;52.002;5.468;2023-10-09T02:42:45;42.92;;;27.30;;
68074;SDS011;54864;52.002;5.468;2023-10-09T02:44:07;40.17;;;25.85;;
68074;SDS011;54864;52.002;5.468;2023-10-09T02:45:31;43.50;;;28.58;;
68074;SDS011;54864;52.002;5.468;2023-10-09T02:46:58;40.47;;;25.73;;
68074;SDS011;54864;52.002;5.468;2023-10-09T02:48:19;42.75;;;27.60;;
68074;SDS011;54864;52.002;5.468;2023-10-09T02:49:46;40.42;;;26.80;;
68074;SDS011;54864;52.002;5.468;2023-10-09T02:51:08;45.45;;;26.98;;
68074;SDS011;54864;52.002;5.468;2023-10-09T02:52:38;44.95;;;26.23;;
68074;SDS011;54864;52.002;5.468;2023-10-09T02:54:01;43.00;;;26.95;;
68074;SDS011;54864;52.002;5.468;2023-10-09T02:55:38;43.33;;;26.30;;
68074;SDS011;54864;52.002;5.468;2023-10-09T02:56:59;40.38;;;27.60;;
68074;SDS011;54864;52.002;5.468;2023-10-09T02:58:30;45.05;;;26.38;;
68074;SDS011;54864;52.002;5.468;2023-10-09T02:59:52;38.63;;;27.45;;
68074;SDS011;54864;52.002;5.468;2023-10-09T03:01:14;43.83;;;28.00;;
68074;SDS011;54864;52.002;5.468;2023-10-09T03:02:36;40.78;;;26.33;;
68074;SDS011;54864;52.002;5.468;2023-10-09T03:04:00;42.78;;;29.02;;
68074;SDS011;54864;52.002;5.468;2023-10-09T03:05:23;40.83;;;27.55;;
68074;SDS011;54864;52.002;5.468;2023-10-09T03:06:47;41.22;;;27.23;;
68074;SDS011;54864;52.002;5.468;2023-10-09T03:08:10;42.17;;;26.55;;
68074;SDS011;54864;52.002;5.468;2023-10-09T03:09:32;37.33;;;25.38;;
68074;SDS011;54864;52.002;5.468;2023-10-09T03:10:55;44.22;;;26.60;;
68074;SDS011;54864;52.002;5.468;2023-10-09T03:12:20;40.80;;;26.67;;
68074;SDS011;54864;52.002;5.468;2023-10-09T03:13:48;38.08;;;25.75;;
68074;SDS011;54864;52.002;5.468;2023-10-09T03:15:11;40.13;;;26.40;;
68074;SDS011;54864;52.002;5.468;2023-10-09T03:16:33;38.00;;;25.35;;
68074;SDS011;54864;52.002;5.468;2023-10-09T03:17:54;36.35;;;24.13;;
68074;SDS011;54864;52.002;5.468;2023-10-09T03:19:16;35.00;;;24.45;;
68074;SDS011;54864;52.002;5.468;2023-10-09T03:20:37;41.25;;;24.38;;
68074;SDS011;54864;52.002;5.468;2023-10-09T03:22:01;44.17;;;25.77;;
68074;SDS011;54864;52.002;5.468;2023-10-09T03:23:22;42.53;;;26.02;;
68074;SDS011;54864;52.002;5.468;2023-10-09T03:24:44;42.28;;;25.70;;
68074;SDS011;54864;52.002;5.468;2023-10-09T03:26:05;35.83;;;25.40;;
68074;SDS011;54864;52.002;5.468;2023-10-09T03:27:28;39.63;;;25.00;;
68074;SDS011;54864;52.002;5.468;2023-10-09T03:28:51;37.45;;;25.27;;
68074;SDS011;54864;52.002;5.468;2023-10-09T03:30:14;41.25;;;26.25;;
68074;SDS011;54864;52.002;5.468;2023-10-09T03:31:37;35.08;;;24.38;;
68074;SDS011;54864;52.002;5.468;2023-10-09T03:32:59;36.88;;;24.75;;
68074;SDS011;54864;52.002;5.468;2023-10-09T03:34:22;41.60;;;27.35;;
68074;SDS011;54864;52.002;5.468;2023-10-09T03:35:44;42.65;;;25.58;;
68074;SDS011;54864;52.002;5.468;2023-10-09T03:37:06;37.72;;;25.55;;
68074;SDS011;54864;52.002;5.468;2023-10-09T03:38:41;35.72;;;24.33;;
68074;SDS011;54864;52.002;5.468;2023-10-09T03:40:05;36.30;;;25.05;;
68074;SDS011;54864;52.002;5.468;2023-10-09T03:41:28;39.05;;;24.83;;
68074;SDS011;54864;52.002;5.468;2023-10-09T03:42:49;42.55;;;26.00;;
68074;SDS011;54864;52.002;5.468;2023-10-09T03:44:13;38.72;;;23.50;;
68074;SDS011;54864;52.002;5.468;2023-10-09T03:45:34;39.00;;;26.13;;
68074;SDS011;54864;52.002;5.468;2023-10-09T03:46:59;37.75;;;24.60;;
68074;SDS011;54864;52.002;5.468;2023-10-09T03:48:20;38.50;;;25.42;;
68074;SDS011;54864;52.002;5.468;2023-10-09T03:49:46;37.45;;;25.25;;
68074;SDS011;54864;52.002;5.468;2023-10-09T03:51:07;37.00;;;24.53;;
68074;SDS011;54864;52.002;5.468;2023-10-09T03:52:35;39.00;;;25.63;;
68074;SDS011;54864;52.002;5.468;2023-10-09T03:53:56;38.90;;;25.15;;
68074;SDS011;54864;52.002;5.468;2023-10-09T03:55:18;45.23;;;25.70;;
68074;SDS011;54864;52.002;5.468;2023-10-09T03:56:42;40.33;;;25.60;;
68074;SDS011;54864;52.002;5.468;2023-10-09T03:58:05;36.92;;;24.02;;
68074;SDS011;54864;52.002;5.468;2023-10-09T03:59:28;37.17;;;24.13;;
68074;SDS011;54864;52.002;5.468;2023-10-09T04:00:53;36.88;;;23.83;;
68074;SDS011;54864;52.002;5.468;2023-10-09T04:02:15;34.60;;;25.13;;
68074;SDS011;54864;52.002;5.468;2023-10-09T04:03:37;35.35;;;24.52;;
68074;SDS011;54864;52.002;5.468;2023-10-09T04:04:59;37.80;;;24.77;;
68074;SDS011;54864;52.002;5.468;2023-10-09T04:06:21;35.17;;;24.13;;
68074;SDS011;54864;52.002;5.468;2023-10-09T04:07:42;36.63;;;24.77;;
68074;SDS011;54864;52.002;5.468;2023-10-09T04:09:05;31.77;;;22.27;;
68074;SDS011;54864;52.002;5.468;2023-10-09T04:10:47;37.42;;;23.92;;
68074;SDS011;54864;52.002;5.468;2023-10-09T04:12:12;37.10;;;23.80;;
68074;SDS011;54864;52.002;5.468;2023-10-09T04:13:41;31.17;;;23.02;;
68074;SDS011;54864;52.002;5.468;2023-10-09T04:15:04;33.65;;;23.65;;
68074;SDS011;54864;52.002;5.468;2023-10-09T04:16:35;38.10;;;24.83;;
68074;SDS011;54864;52.002;5.468;2023-10-09T04:18:11;34.05;;;22.98;;
68074;SDS011;54864;52.002;5.468;2023-10-09T04:19:36;35.03;;;23.50;;
68074;SDS011;54864;52.002;5.468;2023-10-09T04:21:08;35.43;;;22.63;;
68074;SDS011;54864;52.002;5.468;2023-10-09T04:22:39;37.58;;;23.55;;
68074;SDS011;54864;52.002;5.468;2023-10-09T04:24:10;34.05;;;22.83;;
68074;SDS011;54864;52.002;5.468;2023-10-09T04:25:44;32.05;;;22.98;;
68074;SDS011;54864;52.002;5.468;2023-10-09T04:27:06;31.83;;;22.45;;
68074;SDS011;54864;52.002;5.468;2023-10-09T04:28:29;33.55;;;22.00;;
68074;SDS011;54864;52.002;5.468;2023-10-09T04:29:50;33.30;;;23.15;;
68074;SDS011;54864;52.002;5.468;2023-10-09T04:31:14;29.73;;;21.35;;
68074;SDS011;54864;52.002;5.468;2023-10-09T04:32:38;37.25;;;23.15;;
68074;SDS011;54864;52.002;5.468;2023-10-09T04:34:00;32.15;;;21.15;;
68074;SDS011;54864;52.002;5.468;2023-10-09T04:35:41;33.75;;;23.00;;
68074;SDS011;54864;52.002;5.468;2023-10-09T04:37:23;29.80;;;20.95;;
68074;SDS011;54864;52.002;5.468;2023-10-09T04:38:57;29.77;;;20.33;;
68074;SDS011;54864;52.002;5.468;2023-10-09T04:40:36;32.08;;;20.80;;
68074;SDS011;54864;52.002;5.468;2023-10-09T04:42:12;31.35;;;20.15;;
68074;SDS011;54864;52.002;5.468;2023-10-09T04:43:40;32.50;;;20.52;;
68074;SDS011;54864;52.002;5.468;2023-10-09T04:45:05;31.65;;;20.80;;
68074;SDS011;54864;52.002;5.468;2023-10-09T04:46:46;35.28;;;21.98;;
68074;SDS011;54864;52.002;5.468;2023-10-09T04:48:23;25.30;;;19.60;;
68074;SDS011;54864;52.002;5.468;2023-10-09T04:49:58;30.70;;;20.20;;
68074;SDS011;54864;52.002;5.468;2023-10-09T04:51:23;31.80;;;20.15;;
68074;SDS011;54864;52.002;5.468;2023-10-09T04:52:55;29.20;;;19.75;;
68074;SDS011;54864;52.002;5.468;2023-10-09T04:54:16;30.75;;;20.10;;
68074;SDS011;54864;52.002;5.468;2023-10-09T04:55:53;28.80;;;19.70;;
68074;SDS011;54864;52.002;5.468;2023-10-09T04:57:14;28.77;;;19.58;;
68074;SDS011;54864;52.002;5.468;2023-10-09T04:58:38;28.75;;;18.75;;
68074;SDS011;54864;52.002;5.468;2023-10-09T04:59:59;31.30;;;18.95;;
68074;SDS011;54864;52.002;5.468;2023-10-09T05:01:24;31.60;;;19.98;;
68074;SDS011;54864;52.002;5.468;2023-10-09T05:02:58;29.85;;;19.60;;
68074;SDS011;54864;52.002;5.468;2023-10-09T05:04:27;31.80;;;19.23;;
68074;SDS011;54864;52.002;5.468;2023-10-09T05:06:00;28.42;;;18.08;;
68074;SDS011;54864;52.002;5.468;2023-10-09T05:07:40;29.45;;;19.27;;
68074;SDS011;54864;52.002;5.468;2023-10-09T05:09:15;24.92;;;18.10;;
68074;SDS011;54864;52.002;5.468;2023-10-09T05:10:40;28.70;;;18.65;;
68074;SDS011;54864;52.002;5.468;2023-10-09T05:12:14;26.80;;;18.08;;
68074;SDS011;54864;52.002;5.468;2023-10-09T05:13:37;29.90;;;19.42;;
68074;SDS011;54864;52.002;5.468;2023-10-09T05:15:04;30.48;;;17.95;;
68074;SDS011;54864;52.002;5.468;2023-10-09T05:16:28;26.83;;;18.80;;
68074;SDS011;54864;52.002;5.468;2023-10-09T05:17:49;31.85;;;20.60;;
68074;SDS011;54864;52.002;5.468;2023-10-09T05:19:18;24.45;;;17.70;;
68074;SDS011;54864;52.002;5.468;2023-10-09T05:20:54;28.25;;;18.35;;
68074;SDS011;54864;52.002;5.468;2023-10-09T05:22:26;26.10;;;18.20;;
68074;SDS011;54864;52.002;5.468;2023-10-09T05:23:56;27.38;;;17.55;;
68074;SDS011;54864;52.002;5.468;2023-10-09T05:25:36;24.70;;;18.20;;
68074;SDS011;54864;52.002;5.468;2023-10-09T05:27:19;27.70;;;16.63;;
68074;SDS011;54864;52.002;5.468;2023-10-09T05:28:50;28.73;;;17.58;;
68074;SDS011;54864;52.002;5.468;2023-10-09T05:30:13;28.70;;;18.38;;
68074;SDS011;54864;52.002;5.468;2023-10-09T05:31:45;26.53;;;17.37;;
68074;SDS011;54864;52.002;5.468;2023-10-09T05:33:16;27.10;;;17.95;;
68074;SDS011;54864;52.002;5.468;2023-10-09T05:34:50;25.00;;;16.58;;
68074;SDS011;54864;52.002;5.468;2023-10-09T05:36:27;26.27;;;17.77;;
68074;SDS011;54864;52.002;5.468;2023-10-09T05:37:55;26.80;;;16.85;;
68074;SDS011;54864;52.002;5.468;2023-10-09T05:39:22;25.13;;;17.10;;
68074;SDS011;54864;52.002;5.468;2023-10-09T05:41:01;28.23;;;17.47;;
68074;SDS011;54864;52.002;5.468;2023-10-09T05:42:46;23.20;;;15.88;;
68074;SDS011;54864;52.002;5.468;2023-10-09T05:44:18;24.88;;;16.02;;
68074;SDS011;54864;52.002;5.468;2023-10-09T05:45:57;25.70;;;17.40;;
68074;SDS011;54864;52.002;5.468;2023-10-09T05:47:30;25.85;;;16.48;;
68074;SDS011;54864;52.002;5.468;2023-10-09T05:49:12;27.40;;;16.63;;
68074;SDS011;54864;52.002;5.468;2023-10-09T05:50:41;27.10;;;16.70;;
68074;SDS011;54864;52.002;5.468;2023-10-09T05:52:29;25.80;;;15.98;;
68074;SDS011;54864;52.002;5.468;2023-10-09T05:53:53;26.05;;;17.13;;
68074;SDS011;54864;52.002;5.468;2023-10-09T05:55:28;26.65;;;17.83;;
68074;SDS011;54864;52.002;5.468;2023-10-09T05:57:24;24.55;;;16.10;;
68074;SDS011;54864;52.002;5.468;2023-10-09T05:59:00;24.42;;;16.08;;
68074;SDS011;54864;52.002;5.468;2023-10-09T06:00:39;26.25;;;16.88;;
68074;SDS011;54864;52.002;5.468;2023-10-09T06:02:18;26.98;;;17.02;;
68074;SDS011;54864;52.002;5.468;2023-10-09T06:04:03;30.75;;;16.55;;
68074;SDS011;54864;52.002;5.468;2023-10-09T06:05:35;29.15;;;17.20;;
68074;SDS011;54864;52.002;5.468;2023-10-09T06:07:11;27.15;;;15.93;;
68074;SDS011;54864;52.002;5.468;2023-10-09T06:08:34;26.75;;;16.77;;
68074;SDS011;54864;52.002;5.468;2023-10-09T06:10:29;26.08;;;16.25;;
68074;SDS011;54864;52.002;5.468;2023-10-09T06:12:01;28.10;;;16.80;;
68074;SDS011;54864;52.002;5.468;2023-10-09T06:13:40;29.05;;;16.30;;
68074;SDS011;54864;52.002;5.468;2023-10-09T06:15:06;23.70;;;15.57;;
68074;SDS011;54864;52.002;5.468;2023-10-09T06:16:52;32.33;;;16.75;;
68074;SDS011;54864;52.002;5.468;2023-10-09T06:18:38;27.88;;;15.45;;
68074;SDS011;54864;52.002;5.468;2023-10-09T06:20:02;29.20;;;16.48;;
68074;SDS011;54864;52.002;5.468;2023-10-09T06:21:44;25.38;;;15.73;;
68074;SDS011;54864;52.002;5.468;2023-10-09T06:23:24;28.85;;;15.88;;
68074;SDS011;54864;52.002;5.468;2023-10-09T06:25:06;27.48;;;15.93;;
68074;SDS011;54864;52.002;5.468;2023-10-09T06:26:31;25.58;;;15.63;;
68074;SDS011;54864;52.002;5.468;2023-10-09T06:27:53;25.23;;;15.90;;
68074;SDS011;54864;52.002;5.468;2023-10-09T06:29:18;23.75;;;15.63;;
68074;SDS011;54864;52.002;5.468;2023-10-09T06:30:55;27.15;;;15.80;;
68074;SDS011;54864;52.002;5.468;2023-10-09T06:32:36;24.77;;;15.18;;
68074;SDS011;54864;52.002;5.468;2023-10-09T06:34:05;24.92;;;14.55;;
68074;SDS011;54864;52.002;5.468;2023-10-09T06:35:35;28.92;;;15.15;;
68074;SDS011;54864;52.002;5.468;2023-10-09T06:36:56;29.63;;;15.38;;
68074;SDS011;54864;52.002;5.468;2023-10-09T06:38:23;24.63;;;15.43;;
68074;SDS011;54864;52.002;5.468;2023-10-09T06:39:54;23.85;;;14.93;;
68074;SDS011;54864;52.002;5.468;2023-10-09T06:41:33;24.08;;;15.68;;
68074;SDS011;54864;52.002;5.468;2023-10-09T06:43:06;20.67;;;14.05;;
68074;SDS011;54864;52.002;5.468;2023-10-09T06:44:30;25.05;;;13.93;;
68074;SDS011;54864;52.002;5.468;2023-10-09T06:46:06;21.10;;;14.20;;
68074;SDS011;54864;52.002;5.468;2023-10-09T06:47:46;25.42;;;15.63;;
68074;SDS011;54864;52.002;5.468;2023-10-09T06:49:27;23.13;;;14.52;;
68074;SDS011;54864;52.002;5.468;2023-10-09T06:50:53;21.15;;;14.38;;
68074;SDS011;54864;52.002;5.468;2023-10-09T06:52:24;24.80;;;15.27;;
68074;SDS011;54864;52.002;5.468;2023-10-09T06:54:06;22.33;;;14.98;;
68074;SDS011;54864;52.002;5.468;2023-10-09T06:55:35;22.23;;;13.70;;
68074;SDS011;54864;52.002;5.468;2023-10-09T06:57:10;23.33;;;13.82;;
68074;SDS011;54864;52.002;5.468;2023-10-09T06:58:35;24.48;;;14.27;;
68074;SDS011;54864;52.002;5.468;2023-10-09T07:00:02;19.77;;;14.18;;
68074;SDS011;54864;52.002;5.468;2023-10-09T07:01:51;21.00;;;14.75;;
68074;SDS011;54864;52.002;5.468;2023-10-09T07:03:27;24.70;;;14.07;;
68074;SDS011;54864;52.002;5.468;2023-10-09T07:04:53;22.20;;;14.50;;
68074;SDS011;54864;52.002;5.468;2023-10-09T07:06:15;22.90;;;13.82;;
68074;SDS011;54864;52.002;5.468;2023-10-09T07:07:44;21.70;;;14.00;;
68074;SDS011;54864;52.002;5.468;2023-10-09T07:09:15;21.88;;;14.13;;
68074;SDS011;54864;52.002;5.468;2023-10-09T07:10:39;21.77;;;14.27;;
68074;SDS011;54864;52.002;5.468;2023-10-09T07:12:00;21.33;;;14.50;;
68074;SDS011;54864;52.002;5.468;2023-10-09T07:13:25;21.27;;;14.65;;
68074;SDS011;54864;52.002;5.468;2023-10-09T07:14:47;25.23;;;13.50;;
68074;SDS011;54864;52.002;5.468;2023-10-09T07:16:26;26.75;;;14.25;;
68074;SDS011;54864;52.002;5.468;2023-10-09T07:17:58;28.00;;;16.35;;
68074;SDS011;54864;52.002;5.468;2023-10-09T07:19:39;22.80;;;13.80;;
68074;SDS011;54864;52.002;5.468;2023-10-09T07:21:17;25.38;;;14.57;;
68074;SDS011;54864;52.002;5.468;2023-10-09T07:22:48;22.38;;;13.57;;
68074;SDS011;54864;52.002;5.468;2023-10-09T07:24:17;26.63;;;14.15;;
68074;SDS011;54864;52.002;5.468;2023-10-09T07:25:44;21.77;;;13.80;;
68074;SDS011;54864;52.002;5.468;2023-10-09T07:27:16;19.73;;;13.23;;
68074;SDS011;54864;52.002;5.468;2023-10-09T07:28:39;30.15;;;15.00;;
68074;SDS011;54864;52.002;5.468;2023-10-09T07:30:04;23.90;;;13.87;;
68074;SDS011;54864;52.002;5.468;2023-10-09T07:31:47;26.73;;;14.57;;
68074;SDS011;54864;52.002;5.468;2023-10-09T07:33:17;24.52;;;13.82;;
68074;SDS011;54864;52.002;5.468;2023-10-09T07:34:39;23.67;;;14.30;;
68074;SDS011;54864;52.002;5.468;2023-10-09T07:36:13;23.92;;;14.40;;
68074;SDS011;54864;52.002;5.468;2023-10-09T07:37:35;24.30;;;13.82;;
68074;SDS011;54864;52.002;5.468;2023-10-09T07:38:58;22.48;;;13.02;;
68074;SDS011;54864;52.002;5.468;2023-10-09T07:40:22;26.05;;;15.05;;
68074;SDS011;54864;52.002;5.468;2023-10-09T07:41:52;28.55;;;14.48;;
68074;SDS011;54864;52.002;5.468;2023-10-09T07:43:36;31.85;;;15.73;;
68074;SDS011;54864;52.002;5.468;2023-10-09T07:45:02;29.45;;;15.60;;
68074;SDS011;54864;52.002;5.468;2023-10-09T07:46:33;36.55;;;15.98;;
68074;SDS011;54864;52.002;5.468;2023-10-09T07:48:12;29.67;;;15.05;;
68074;SDS011;54864;52.002;5.468;2023-10-09T07:49:35;25.48;;;15.48;;
68074;SDS011;54864;52.002;5.468;2023-10-09T07:50:57;26.17;;;15.13;;
68074;SDS011;54864;52.002;5.468;2023-10-09T07:52:20;27.00;;;14.32;;
68074;SDS011;54864;52.002;5.468;2023-10-09T07:53:42;25.15;;;14.48;;
68074;SDS011;54864;52.002;5.468;2023-10-09T07:55:10;28.77;;;14.70;;
68074;SDS011;54864;52.002;5.468;2023-10-09T07:56:46;26.38;;;15.32;;
68074;SDS011;54864;52.002;5.468;2023-10-09T07:58:13;25.17;;;14.70;;
68074;SDS011;54864;52.002;5.468;2023-10-09T07:59:34;25.23;;;16.00;;
68074;SDS011;54864;52.002;5.468;2023-10-09T08:01:03;23.40;;;15.38;;
68074;SDS011;54864;52.002;5.468;2023-10-09T08:02:28;24.70;;;14.73;;
68074;SDS011;54864;52.002;5.468;2023-10-09T08:03:53;25.42;;;14.57;;
68074;SDS011;54864;52.002;5.468;2023-10-09T08:05:25;25.45;;;15.07;;
68074;SDS011;54864;52.002;5.468;2023-10-09T08:06:53;24.55;;;15.63;;
68074;SDS011;54864;52.002;5.468;2023-10-09T08:08:19;28.40;;;16.08;;
68074;SDS011;54864;52.002;5.468;2023-10-09T08:09:59;26.38;;;15.30;;
68074;SDS011;54864;52.002;5.468;2023-10-09T08:11:35;35.33;;;14.98;;
68074;SDS011;54864;52.002;5.468;2023-10-09T08:13:20;25.88;;;14.48;;
68074;SDS011;54864;52.002;5.468;2023-10-09T08:14:56;26.73;;;14.90;;
68074;SDS011;54864;52.002;5.468;2023-10-09T08:16:34;29.48;;;15.38;;
68074;SDS011;54864;52.002;5.468;2023-10-09T08:17:58;27.63;;;14.73;;
68074;SDS011;54864;52.002;5.468;2023-10-09T08:19:19;22.42;;;14.45;;
68074;SDS011;54864;52.002;5.468;2023-10-09T08:20:52;26.15;;;14.65;;
68074;SDS011;54864;52.002;5.468;2023-10-09T08:22:29;27.52;;;14.75;;
68074;SDS011;54864;52.002;5.468;2023-10-09T08:24:03;24.80;;;14.23;;
68074;SDS011;54864;52.002;5.468;2023-10-09T08:25:46;25.42;;;13.93;;
68074;SDS011;54864;52.002;5.468;2023-10-09T08:27:17;28.85;;;15.30;;
68074;SDS011;54864;52.002;5.468;2023-10-09T08:28:57;21.65;;;13.50;;
68074;SDS011;54864;52.002;5.468;2023-10-09T08:30:33;29.95;;;15.05;;
68074;SDS011;54864;52.002;5.468;2023-10-09T08:32:11;26.35;;;14.18;;
68074;SDS011;54864;52.002;5.468;2023-10-09T08:33:38;24.45;;;13.45;;
68074;SDS011;54864;52.002;5.468;2023-10-09T08:35:03;25.35;;;14.15;;
68074;SDS011;54864;52.002;5.468;2023-10-09T08:36:39;28.20;;;14.07;;
68074;SDS011;54864;52.002;5.468;2023-10-09T08:38:03;27.20;;;14.48;;